createdAt,value
2019-01-30T00:04:45.133Z,55.45
2019-01-30T00:07:10.900Z,62.58
2019-01-30T00:09:36.650Z,55.57
2019-01-30T00:12:02.632Z,54.60
2019-01-30T00:14:28.390Z,53.63
2019-01-30T00:16:54.151Z,51.83
2019-01-30T00:19:19.905Z,60.40
2019-01-30T00:21:45.679Z,49.07
2019-01-30T00:24:11.450Z,57.50
2019-01-30T00:26:37.229Z,51.73
2019-01-30T00:29:02.989Z,60.80
2019-01-30T00:31:28.750Z,56.33
2019-01-30T00:33:54.515Z,55.97
2019-01-30T00:36:20.270Z,51.00
2019-01-30T00:38:46.049Z,51.90
2019-01-30T00:41:11.808Z,54.63
2019-01-30T00:43:57.471Z,69.13
2019-01-30T00:46:23.224Z,50.35
2019-01-30T00:48:48.991Z,56.73
2019-01-30T00:51:14.761Z,52.53
2019-01-30T00:53:40.529Z,55.57
2019-01-30T00:56:06.284Z,59.77
2019-01-30T00:58:32.059Z,58.53
2019-01-30T01:00:58.401Z,56.93
2019-01-30T01:03:25.477Z,51.18
2019-01-30T01:05:51.237Z,55.03
2019-01-30T01:08:17.015Z,55.93
2019-01-30T01:10:42.971Z,52.67
2019-01-30T01:13:08.747Z,57.87
2019-01-30T01:15:34.498Z,59.47
2019-01-30T01:18:00.275Z,61.13
2019-01-30T01:20:26.128Z,57.90
2019-01-30T01:22:51.905Z,53.87
2019-01-30T01:25:59.419Z,58.37
2019-01-30T01:28:25.208Z,61.58
2019-01-30T01:30:50.966Z,56.63
2019-01-30T01:33:36.633Z,58.67
2019-01-30T01:39:29.465Z,57.17
2019-01-30T01:41:55.224Z,56.17
2019-01-30T01:44:20.992Z,55.93
2019-01-30T01:46:46.750Z,53.80
2019-01-30T01:49:12.529Z,52.60
2019-01-30T01:51:38.289Z,60.10
2019-01-30T01:54:04.062Z,55.47
2019-01-30T01:56:29.826Z,56.63
2019-01-30T01:58:55.592Z,48.57
2019-01-30T02:01:21.348Z,54.07
2019-01-30T02:03:47.123Z,55.00
2019-01-30T02:06:12.875Z,58.10
2019-01-30T02:08:38.648Z,61.43
2019-01-30T02:11:04.501Z,49.37
2019-01-30T02:13:30.283Z,50.90
2019-01-30T02:15:56.031Z,54.00
2019-01-30T02:18:21.804Z,52.67
2019-01-30T02:20:47.563Z,59.40
2019-01-30T02:23:13.450Z,46.63
2019-01-30T02:25:39.200Z,50.10
2019-01-30T02:28:04.959Z,54.17
2019-01-30T02:30:30.747Z,53.90
2019-01-30T02:36:10.518Z,51.28
2019-01-30T02:41:08.805Z,49.77
2019-01-30T02:43:34.549Z,47.97
2019-01-30T02:46:00.328Z,49.97
2019-01-30T02:48:26.082Z,49.90
2019-01-30T02:50:51.864Z,51.73
2019-01-30T02:53:17.614Z,47.83
2019-01-30T02:55:43.383Z,51.57
2019-01-30T02:58:09.145Z,45.80
2019-01-30T03:00:35.006Z,42.30
2019-01-30T03:03:00.759Z,44.57
2019-01-30T03:05:26.524Z,45.03
2019-01-30T03:07:52.384Z,42.23
2019-01-30T03:10:59.833Z,43.70
2019-01-30T03:13:25.586Z,44.33
2019-01-30T03:15:51.366Z,45.10
2019-01-30T03:18:17.121Z,45.00
2019-01-30T03:20:42.894Z,47.73
2019-01-30T03:23:08.650Z,43.87
2019-01-30T03:25:34.429Z,42.23
2019-01-30T03:28:00.191Z,44.90
2019-01-30T03:33:39.804Z,41.95
2019-01-30T03:36:05.569Z,39.37
2019-01-30T03:38:31.329Z,47.07
2019-01-30T03:40:57.107Z,39.43
2019-01-30T03:43:22.868Z,40.70
2019-01-30T03:45:48.644Z,44.57
2019-01-30T03:48:14.400Z,41.53
2019-01-30T03:50:40.224Z,40.63
2019-01-30T03:53:05.969Z,41.63
2019-01-30T03:55:31.756Z,41.67
2019-01-30T03:57:57.508Z,39.87
2019-01-30T04:01:04.957Z,41.63
2019-01-30T04:03:30.715Z,39.50
2019-01-30T04:05:56.494Z,39.13
2019-01-30T04:08:22.235Z,44.73
2019-01-30T04:10:48.011Z,40.83
2019-01-30T04:13:13.757Z,39.17
2019-01-30T04:15:39.518Z,42.53
2019-01-30T04:18:05.283Z,39.30
2019-01-30T04:20:31.037Z,43.13
2019-01-30T04:22:56.808Z,40.37
2019-01-30T04:25:22.563Z,38.20
2019-01-30T04:27:48.390Z,44.93
2019-01-30T04:30:33.981Z,36.90
2019-01-30T04:32:59.741Z,41.18
2019-01-30T04:35:25.495Z,36.23
2019-01-30T04:37:51.275Z,40.63
2019-01-30T04:40:58.703Z,39.37
2019-01-30T04:43:24.470Z,35.98
2019-01-30T04:45:50.220Z,38.17
2019-01-30T04:48:15.987Z,36.83
2019-01-30T04:50:41.750Z,41.33
2019-01-30T04:53:07.510Z,38.30
2019-01-30T04:55:33.264Z,43.10
2019-01-30T04:57:59.039Z,40.67
2019-01-30T05:00:24.897Z,40.67
2019-01-30T05:03:32.360Z,38.43
2019-01-30T05:05:58.094Z,36.98
2019-01-30T05:08:23.858Z,40.20
2019-01-30T05:10:49.607Z,36.77
2019-01-30T05:13:15.373Z,41.20
2019-01-30T05:15:41.124Z,38.43
2019-01-30T05:18:06.897Z,40.97
2019-01-30T05:20:32.649Z,38.73
2019-01-30T05:22:58.421Z,40.33
2019-01-30T05:25:24.168Z,37.70
2019-01-30T05:27:49.940Z,37.60
2019-01-30T05:30:57.363Z,40.23
2019-01-30T05:33:23.125Z,44.88
2019-01-30T05:35:48.884Z,34.60
2019-01-30T05:38:14.662Z,35.73
2019-01-30T05:40:40.410Z,34.97
2019-01-30T05:43:06.291Z,36.37
2019-01-30T05:45:32.039Z,41.33
2019-01-30T05:47:57.798Z,40.67
2019-01-30T05:50:23.581Z,37.00
2019-01-30T05:52:49.333Z,37.17
2019-01-30T05:55:56.778Z,38.90
2019-01-30T05:58:22.669Z,37.88
2019-01-30T06:00:48.432Z,35.20
2019-01-30T06:03:34.113Z,41.80
2019-01-30T06:05:59.862Z,35.60
2019-01-30T06:08:25.618Z,40.97
2019-01-30T06:10:51.393Z,40.90
2019-01-30T06:13:17.181Z,37.43
2019-01-30T06:15:42.951Z,38.17
2019-01-30T06:18:08.710Z,42.73
2019-01-30T06:20:34.489Z,42.97
2019-01-30T06:23:01.847Z,38.60
2019-01-30T06:25:27.925Z,38.67
2019-01-30T06:27:53.670Z,46.00
2019-01-30T06:31:01.119Z,41.13
2019-01-30T06:33:26.874Z,45.92
2019-01-30T06:35:52.649Z,38.03
2019-01-30T06:38:18.397Z,39.13
2019-01-30T06:40:44.162Z,38.40
2019-01-30T06:43:10.015Z,39.13
2019-01-30T06:45:35.781Z,39.20
2019-01-30T06:48:01.535Z,39.63
2019-01-30T06:50:27.414Z,41.17
2019-01-30T06:52:53.171Z,38.87
2019-01-30T06:55:18.946Z,39.63
2019-01-30T06:57:44.694Z,38.83
2019-01-30T07:03:24.563Z,38.05
2019-01-30T07:05:50.317Z,32.07
2019-01-30T07:08:16.065Z,35.90
2019-01-30T07:10:41.829Z,35.13
2019-01-30T07:13:07.584Z,33.57
2019-01-30T07:15:33.348Z,35.27
2019-01-30T07:17:59.105Z,32.87
2019-01-30T07:20:24.851Z,35.37
2019-01-30T07:22:50.615Z,32.70
2019-01-30T07:25:58.072Z,27.50
2019-01-30T07:28:23.831Z,36.65
2019-01-30T07:30:49.598Z,34.63
2019-01-30T07:33:15.365Z,31.67
2019-01-30T07:35:41.118Z,33.37
2019-01-30T07:38:06.884Z,31.87
2019-01-30T07:40:32.639Z,32.20
2019-01-30T07:42:58.408Z,32.17
2019-01-30T07:46:05.832Z,27.00
2019-01-30T07:48:31.601Z,26.75
2019-01-30T07:50:57.365Z,30.20
2019-01-30T07:53:23.141Z,30.70
2019-01-30T07:55:48.884Z,27.90
2019-01-30T07:58:14.760Z,26.93
2019-01-30T08:00:40.508Z,25.70
2019-01-30T08:03:06.271Z,28.20
2019-01-30T08:05:32.022Z,29.40
2019-01-30T08:07:57.790Z,25.83
2019-01-30T08:10:23.644Z,25.73
2019-01-30T08:12:49.502Z,32.37
2019-01-30T08:18:42.323Z,25.97
2019-01-30T08:21:08.079Z,26.57
2019-01-30T08:23:33.848Z,23.70
2019-01-30T08:25:59.624Z,22.80
2019-01-30T08:28:25.768Z,28.33
2019-01-30T08:30:53.380Z,26.00
2019-01-30T08:33:21.587Z,25.15
2019-01-30T08:35:48.348Z,26.23
2019-01-30T08:38:14.114Z,23.77
2019-01-30T08:40:39.870Z,27.33
2019-01-30T08:43:05.638Z,24.33
2019-01-30T08:45:31.387Z,21.90
2019-01-30T08:47:57.257Z,23.67
2019-01-30T08:53:50.090Z,23.80
2019-01-30T08:56:15.844Z,21.70
2019-01-30T08:58:41.621Z,23.23
2019-01-30T09:01:07.370Z,24.13
2019-01-30T09:03:33.143Z,20.40
2019-01-30T09:05:58.940Z,22.13
2019-01-30T09:08:24.658Z,20.47
2019-01-30T09:10:50.510Z,19.30
2019-01-30T09:13:16.294Z,18.70
2019-01-30T09:15:42.045Z,20.57
2019-01-30T09:18:07.902Z,25.57
2019-01-30T09:20:33.668Z,21.43
2019-01-30T09:22:59.422Z,20.87
2019-01-30T09:26:06.866Z,22.50
2019-01-30T09:28:32.626Z,23.50
2019-01-30T09:30:58.399Z,20.40
2019-01-30T09:33:25.884Z,19.07
2019-01-30T09:35:51.819Z,20.77
2019-01-30T09:38:17.619Z,19.50
2019-01-30T09:40:43.371Z,19.40
2019-01-30T09:43:09.125Z,18.20
2019-01-30T09:45:35.033Z,18.67
2019-01-30T09:48:00.755Z,18.63
2019-01-30T09:50:26.567Z,21.47
2019-01-30T09:53:33.977Z,18.27
2019-01-30T09:55:59.750Z,17.00
2019-01-30T09:58:25.499Z,17.63
2019-01-30T10:00:51.268Z,19.33
2019-01-30T10:03:17.022Z,16.23
2019-01-30T10:05:42.795Z,16.87
2019-01-30T10:11:35.626Z,16.87
2019-01-30T10:14:43.062Z,14.03
2019-01-30T10:17:08.830Z,14.95
2019-01-30T10:19:34.591Z,13.93
2019-01-30T10:22:00.362Z,14.23
2019-01-30T10:24:26.116Z,13.23
2019-01-30T10:26:51.883Z,13.27
2019-01-30T10:29:17.634Z,13.10
2019-01-30T10:31:43.415Z,13.97
2019-01-30T10:34:09.161Z,12.63
2019-01-30T10:36:34.941Z,14.67
2019-01-30T10:39:00.686Z,11.00
2019-01-30T10:41:26.461Z,11.60
2019-01-30T10:43:52.215Z,12.87
2019-01-30T10:46:18.087Z,11.63
2019-01-30T10:48:43.850Z,13.57
2019-01-30T10:51:09.625Z,12.00
2019-01-30T10:53:35.377Z,12.47
2019-01-30T10:56:01.139Z,11.10
2019-01-30T10:58:26.919Z,11.60
2019-01-30T11:00:52.669Z,11.93
2019-01-30T11:03:18.542Z,12.57
2019-01-30T11:05:44.566Z,15.30
2019-01-30T11:08:12.064Z,13.75
2019-01-30T11:10:37.826Z,12.80
2019-01-30T11:13:45.263Z,12.23
2019-01-30T11:16:11.013Z,11.08
2019-01-30T11:18:36.801Z,13.97
2019-01-30T11:21:44.228Z,13.07
2019-01-30T11:24:10.000Z,11.65
2019-01-30T11:26:36.540Z,11.50
2019-01-30T11:29:03.427Z,13.55
2019-01-30T11:31:29.179Z,11.47
2019-01-30T11:33:55.059Z,13.43
2019-01-30T11:36:20.815Z,11.20
2019-01-30T11:38:46.590Z,13.63
2019-01-30T11:41:12.338Z,12.83
2019-01-30T11:43:38.101Z,13.13
2019-01-30T11:46:03.953Z,14.57
2019-01-30T11:48:29.730Z,16.40
2019-01-30T11:50:55.486Z,11.40
2019-01-30T11:53:21.291Z,12.63
2019-01-30T11:55:47.035Z,13.27
2019-01-30T11:58:12.808Z,14.17
2019-01-30T12:00:58.961Z,10.20
2019-01-30T12:03:24.727Z,12.20
2019-01-30T12:05:50.481Z,13.53
2019-01-30T12:08:16.365Z,10.77
2019-01-30T12:10:42.107Z,11.23
2019-01-30T12:13:07.870Z,12.60
2019-01-30T12:15:33.627Z,10.00
2019-01-30T12:17:59.390Z,11.37
2019-01-30T12:20:25.158Z,8.77
2019-01-30T12:22:51.124Z,9.97
2019-01-30T12:25:58.560Z,8.77
2019-01-30T12:28:24.340Z,7.65
2019-01-30T12:30:50.097Z,11.87
2019-01-30T12:33:15.831Z,8.60
2019-01-30T12:35:41.597Z,8.67
2019-01-30T12:38:07.369Z,10.20
2019-01-30T12:40:33.121Z,10.53
2019-01-30T12:42:58.882Z,8.90
2019-01-30T12:48:38.085Z,11.12
2019-01-30T12:51:03.868Z,9.20
2019-01-30T12:53:29.623Z,9.60
2019-01-30T12:55:55.385Z,8.90
2019-01-30T12:58:21.134Z,9.47
2019-01-30T13:00:46.900Z,7.13
2019-01-30T13:03:12.671Z,8.30
2019-01-30T13:05:38.540Z,7.33
2019-01-30T13:08:24.191Z,6.87
2019-01-30T13:10:49.962Z,6.53
2019-01-30T13:13:15.716Z,8.70
2019-01-30T13:15:41.481Z,9.87
2019-01-30T13:18:17.837Z,7.80
2019-01-30T13:20:34.917Z,7.25
2019-01-30T13:23:00.670Z,7.10
2019-01-30T13:26:08.129Z,7.47
2019-01-30T13:28:33.887Z,8.40
2019-01-30T13:30:59.754Z,5.43
2019-01-30T13:33:25.511Z,6.03
2019-01-30T13:35:51.280Z,5.37
2019-01-30T13:38:17.053Z,6.40
2019-01-30T13:40:42.810Z,7.23
2019-01-30T13:43:08.573Z,9.63
2019-01-30T13:45:34.351Z,6.53
2019-01-30T13:48:00.102Z,7.57
2019-01-30T13:51:07.571Z,6.30
2019-01-30T13:53:33.337Z,6.72
2019-01-30T13:55:59.106Z,7.30
2019-01-30T13:58:25.011Z,6.50
2019-01-30T14:00:50.744Z,6.67
2019-01-30T14:03:16.529Z,7.50
2019-01-30T14:05:42.294Z,6.40
2019-01-30T14:08:08.134Z,8.33
2019-01-30T14:10:34.047Z,7.17
2019-01-30T14:12:59.766Z,7.33
2019-01-30T14:16:07.257Z,7.20
2019-01-30T14:18:32.979Z,8.60
2019-01-30T14:20:58.779Z,8.17
2019-01-30T14:23:24.512Z,6.83
2019-01-30T14:25:50.268Z,7.73
2019-01-30T14:28:16.066Z,8.27
2019-01-30T14:30:41.792Z,8.43
2019-01-30T14:33:07.762Z,12.67
2019-01-30T14:36:15.216Z,16.60
2019-01-30T14:38:40.991Z,14.85
2019-01-30T14:41:06.737Z,13.67
2019-01-30T14:43:32.514Z,15.13
2019-01-30T14:45:58.249Z,9.43
2019-01-30T14:48:24.022Z,7.23
2019-01-30T14:50:49.816Z,7.50
2019-01-30T14:53:15.581Z,11.27
2019-01-30T14:55:41.312Z,10.17
2019-01-30T14:58:48.789Z,10.03
2019-01-30T15:01:14.550Z,8.28
2019-01-30T15:03:40.310Z,8.27
2019-01-30T15:06:06.062Z,8.53
2019-01-30T15:08:31.828Z,9.23
2019-01-30T15:10:57.582Z,8.63
2019-01-30T15:13:23.355Z,8.87
2019-01-30T15:15:49.232Z,9.00
2019-01-30T15:18:14.985Z,8.17
2019-01-30T15:20:40.770Z,8.17
2019-01-30T15:23:48.233Z,8.70
2019-01-30T15:26:13.947Z,6.62
2019-01-30T15:28:39.734Z,7.13
2019-01-30T15:31:05.468Z,6.87
2019-01-30T15:33:31.243Z,8.33
2019-01-30T15:35:56.994Z,7.87
2019-01-30T15:38:22.787Z,9.23
2019-01-30T15:40:48.516Z,8.33
2019-01-30T15:43:14.382Z,8.53
2019-01-30T15:45:40.242Z,8.70
2019-01-30T15:48:06.018Z,6.83
2019-01-30T15:50:51.652Z,7.03
2019-01-30T15:53:17.441Z,6.45
2019-01-30T15:55:43.199Z,7.13
2019-01-30T15:58:50.640Z,7.10
2019-01-30T16:04:43.470Z,9.25
2019-01-30T16:07:09.223Z,7.43
2019-01-30T16:09:35.044Z,8.10
2019-01-30T16:12:00.796Z,6.83
2019-01-30T16:14:26.596Z,6.77
2019-01-30T16:16:52.350Z,7.97
2019-01-30T16:19:18.125Z,10.10
2019-01-30T16:21:45.093Z,10.37
2019-01-30T16:24:10.948Z,13.60
2019-01-30T16:26:36.699Z,11.77
2019-01-30T16:29:03.014Z,10.63
2019-01-30T16:31:48.930Z,9.83
2019-01-30T16:34:14.694Z,8.65
2019-01-30T16:36:40.477Z,9.80
2019-01-30T16:39:47.948Z,8.30
2019-01-30T16:42:13.866Z,9.78
2019-01-30T16:44:39.626Z,9.53
2019-01-30T16:47:05.392Z,8.83
2019-01-30T16:49:51.051Z,9.50
2019-01-30T16:52:16.838Z,8.53
2019-01-30T16:54:42.596Z,8.43
2019-01-30T16:57:08.444Z,12.40
2019-01-30T16:59:34.223Z,9.93
2019-01-30T17:01:59.988Z,8.33
2019-01-30T17:04:25.763Z,9.90
2019-01-30T17:06:51.540Z,9.10
2019-01-30T17:09:17.307Z,7.50
2019-01-30T17:11:43.079Z,8.70
2019-01-30T17:14:08.872Z,9.57
2019-01-30T17:16:34.624Z,8.60
2019-01-30T17:19:00.385Z,10.37
2019-01-30T17:21:26.155Z,9.87
2019-01-30T17:23:51.905Z,10.97
2019-01-30T17:26:17.684Z,8.60
2019-01-30T17:28:43.444Z,12.17
2019-01-30T17:31:09.227Z,8.70
2019-01-30T17:33:34.977Z,10.10
2019-01-30T17:36:00.745Z,11.30
2019-01-30T17:38:26.501Z,10.33
2019-01-30T17:40:52.381Z,10.87
2019-01-30T17:43:18.140Z,11.63
2019-01-30T17:45:44.013Z,11.10
2019-01-30T17:48:51.457Z,10.80
2019-01-30T17:51:17.234Z,9.15
2019-01-30T17:53:42.982Z,10.07
2019-01-30T17:56:08.761Z,13.57
2019-01-30T17:58:34.514Z,13.80
2019-01-30T18:01:00.481Z,16.20
2019-01-30T18:03:46.141Z,10.97
2019-01-30T18:06:12.969Z,12.88
2019-01-30T18:08:39.672Z,13.58
2019-01-30T18:11:05.443Z,11.63
2019-01-30T18:13:31.190Z,12.07
2019-01-30T18:15:57.046Z,15.57
2019-01-30T18:18:22.811Z,13.53
2019-01-30T18:20:48.658Z,16.73
2019-01-30T18:23:14.433Z,12.40
2019-01-30T18:25:40.284Z,14.87
2019-01-30T18:28:06.151Z,18.30
2019-01-30T18:30:31.906Z,13.53
2019-01-30T18:32:57.666Z,15.20
2019-01-30T18:35:23.414Z,12.80
2019-01-30T18:37:49.185Z,15.27
2019-01-30T18:43:42.013Z,16.23
2019-01-30T18:46:07.768Z,13.87
2019-01-30T18:48:33.538Z,13.27
2019-01-30T18:50:59.298Z,13.67
2019-01-30T18:53:25.084Z,12.10
2019-01-30T18:55:50.937Z,12.63
2019-01-30T18:58:16.702Z,14.07
2019-01-30T19:00:42.460Z,15.40
2019-01-30T19:03:49.899Z,13.40
2019-01-30T19:06:15.669Z,14.25
2019-01-30T19:08:41.442Z,13.27
2019-01-30T19:11:07.197Z,15.47
2019-01-30T19:13:32.962Z,13.93
2019-01-30T19:15:58.715Z,14.80
2019-01-30T19:18:24.485Z,19.33
2019-01-30T19:20:50.336Z,15.10
2019-01-30T19:23:16.120Z,15.53
2019-01-30T19:25:41.870Z,16.27
2019-01-30T19:28:49.353Z,16.47
2019-01-30T19:31:15.090Z,16.27
2019-01-30T19:33:40.848Z,16.43
2019-01-30T19:36:06.610Z,15.83
2019-01-30T19:38:32.481Z,14.93
2019-01-30T19:41:18.142Z,16.83
2019-01-30T19:43:43.909Z,18.42
2019-01-30T19:46:09.656Z,14.27
2019-01-30T19:48:35.440Z,18.20
2019-01-30T19:51:01.746Z,15.37
2019-01-30T19:53:28.887Z,14.38
2019-01-30T19:55:54.648Z,17.87
2019-01-30T19:58:20.427Z,14.57
2019-01-30T20:00:46.273Z,17.40
2019-01-30T20:03:53.733Z,14.37
2019-01-30T20:06:19.481Z,16.42
2019-01-30T20:08:45.359Z,16.30
2019-01-30T20:11:11.107Z,17.90
2019-01-30T20:13:36.896Z,17.53
2019-01-30T20:19:30.118Z,19.05
2019-01-30T20:21:55.867Z,18.90
2019-01-30T20:24:21.643Z,18.80
2019-01-30T20:26:47.381Z,21.70
2019-01-30T20:29:13.146Z,18.70
2019-01-30T20:31:38.903Z,23.00
2019-01-30T20:34:10.402Z,20.87
2019-01-30T20:39:39.629Z,20.65
2019-01-30T20:42:05.386Z,22.10
2019-01-30T20:44:31.195Z,22.17
2019-01-30T20:46:56.951Z,21.53
2019-01-30T20:49:22.702Z,22.87
2019-01-30T20:51:48.487Z,19.00
2019-01-30T20:54:14.464Z,21.40
2019-01-30T20:56:42.934Z,25.93
2019-01-30T20:59:08.881Z,18.98
2019-01-30T21:01:35.098Z,20.03
2019-01-30T21:04:21.029Z,18.02
2019-01-30T21:06:47.383Z,19.48
2019-01-30T21:09:16.063Z,19.35
2019-01-30T21:14:36.514Z,19.42
2019-01-30T21:26:45.045Z,22.37
2019-01-30T21:35:43.675Z,21.30
2019-01-30T21:38:51.306Z,21.45
2019-01-30T21:41:17.884Z,22.87
2019-01-30T21:43:44.076Z,21.82
2019-01-30T21:49:03.778Z,21.75
2019-01-30T21:51:29.947Z,22.20
2019-01-30T21:54:37.561Z,23.42
2019-01-30T21:57:06.354Z,23.05
2019-01-30T22:02:19.629Z,21.93
2019-01-30T22:05:05.565Z,21.13
2019-01-30T22:07:31.656Z,21.33
2019-01-30T22:10:17.605Z,20.17
2019-01-30T22:12:43.970Z,20.32
2019-01-30T22:15:51.585Z,20.95
2019-01-30T22:18:17.644Z,24.12
2019-01-30T22:20:43.875Z,19.57
2019-01-30T22:23:37.234Z,19.32
2019-01-30T22:26:03.390Z,18.37
2019-01-30T22:28:49.236Z,20.80
2019-01-30T22:31:15.262Z,19.65
2019-01-30T22:33:41.285Z,19.90
2019-01-30T22:36:07.204Z,19.15
2019-01-30T22:38:33.192Z,20.23
2019-01-30T22:41:19.237Z,18.20
2019-01-30T22:43:45.371Z,18.32
2019-01-30T22:46:11.635Z,19.80
2019-01-30T22:48:37.771Z,21.40
2019-01-30T22:54:11.340Z,18.90
2019-01-30T22:56:37.816Z,19.32
2019-01-30T22:59:05.032Z,21.50
2019-01-30T23:02:12.667Z,18.32
2019-01-30T23:05:20.273Z,18.48
2019-01-30T23:11:59.974Z,17.75
2019-01-30T23:18:19.663Z,16.30
2019-01-30T23:21:25.509Z,19.15
2019-01-30T23:24:33.171Z,18.02
2019-01-30T23:27:58.782Z,19.07
2019-01-30T23:31:04.660Z,22.00
2019-01-30T23:34:15.008Z,19.70
2019-01-30T23:37:22.604Z,21.70
2019-01-30T23:40:30.246Z,19.27
2019-01-30T23:43:36.060Z,17.98
2019-01-30T23:46:44.609Z,20.05
2019-01-30T23:50:10.223Z,19.45
2019-01-30T23:53:17.863Z,20.00
2019-01-30T23:56:43.454Z,19.95
